PWSweather.com
Personal Weather Stations
Station Observations
KRMIDAS
Braemar, Lake Zurich, IL 60047

BraemarLake Zurich, IL 60047

Lat: 42.178, Lon: -88.102

Elevation: 837

Station Type: Davis Vantage Pro 2

http://tomkeramidas.com/cumulus/index.htm

Latest ConditionsUpdated 6:15:01 AM CDT Thursday, Apr 24, 2014
Currently Today's Max Today's Min Today's Average
Temperature 39.4°F4.1°C 39.4°F4.1°C 35.9°F2.2°C 37.4°F3.0°C
Dew Point 34.7°F1.5°C 34.7°F1.5°C 29.1°F-1.6°C 32.5°F0.3°C
Winds 4.0 mph E6.4 kmh E 4.0 mph E6.4 kmh E - 1.6 mph 2.6 kmh
Wind Gusts 10.0 mph16.1 kmh 11.0 mph17.7 kmh - -
Humidity 83% 87% 71% 82%
Pressure 29.98 in1015.2 mb 30.06 in1017.9 mb 29.98 in1015.2 mb -
Precipitation - 0.04 in1.0 mm - -
Hour Temp Dew Point Humidity Winds Wind Gusts Pressure Precip Precip Rate Daily Precip Total
06:15 AM 39.4°F4.1°C 34.7°F1.5°C 83% 4.0 mph E6.4 kmh E 10.0 mph16.1 kmh 29.98 in1015.2 mb 0.00 in0.0 mm 0.00 in/hr0.0 mm/hr 0.04 in1.0 mm
06:00 AM 39.3°F4.1°C 34.6°F1.4°C 83% 4.0 mph E6.4 kmh E 10.0 mph16.1 kmh 29.99 in1015.6 mb 0.00 in0.0 mm 0.00 in/hr0.0 mm/hr 0.04 in1.0 mm
05:45 AM 39.2°F4.0°C 34.2°F1.2°C 82% 4.0 mph E6.4 kmh E 9.0 mph14.5 kmh 29.99 in1015.6 mb 0.00 in0.0 mm 0.00 in/hr0.0 mm/hr 0.04 in1.0 mm
05:30 AM 39.0°F3.9°C 34.0°F1.1°C 82% 4.0 mph E6.4 kmh E 10.0 mph16.1 kmh 30.00 in1015.9 mb 0.00 in0.0 mm 0.00 in/hr0.0 mm/hr 0.04 in1.0 mm
05:15 AM 38.8°F3.8°C 33.8°F1.0°C 82% 4.0 mph ENE6.4 kmh ENE 11.0 mph17.7 kmh 29.99 in1015.6 mb 0.01 in0.3 mm 0.00 in/hr0.0 mm/hr 0.04 in1.0 mm
05:00 AM 38.4°F3.6°C 34.0°F1.1°C 84% 3.0 mph E4.8 kmh E 8.0 mph12.9 kmh 30.00 in1015.9 mb 0.01 in0.3 mm 0.00 in/hr0.0 mm/hr 0.04 in1.0 mm
04:45 AM 38.2°F3.4°C 33.8°F1.0°C 84% 3.0 mph ENE4.8 kmh ENE 9.0 mph14.5 kmh 30.01 in1016.3 mb 0.01 in0.3 mm 0.00 in/hr0.0 mm/hr 0.04 in1.0 mm
04:30 AM 38.3°F3.5°C 33.3°F0.7°C 82% 2.0 mph ENE3.2 kmh ENE 7.0 mph11.3 kmh 30.02 in1016.6 mb 0.01 in0.3 mm 0.04 in/hr1.0 mm/hr 0.04 in1.0 mm
04:15 AM 38.0°F3.3°C 32.7°F0.4°C 81% 2.0 mph NE3.2 kmh NE 9.0 mph14.5 kmh 30.02 in1016.6 mb 0.00 in0.0 mm 0.00 in/hr0.0 mm/hr 0.03 in0.8 mm
04:00 AM 37.9°F3.3°C 32.3°F0.2°C 80% 3.0 mph NE4.8 kmh NE 7.0 mph11.3 kmh 30.02 in1016.6 mb 0.00 in0.0 mm 0.00 in/hr0.0 mm/hr 0.03 in0.8 mm
03:45 AM 37.6°F3.1°C 32.3°F0.2°C 81% Calm Calm -- 30.04 in1017.3 mb 0.00 in0.0 mm 0.00 in/hr0.0 mm/hr 0.03 in0.8 mm
03:30 AM 37.1°F2.8°C 32.1°F0.1°C 82% Calm Calm 6.0 mph9.7 kmh 30.05 in1017.6 mb 0.00 in0.0 mm 0.00 in/hr0.0 mm/hr 0.03 in0.8 mm
03:15 AM 36.7°F2.6°C 32.3°F0.2°C 84% 1.0 mph N1.6 kmh N 3.0 mph4.8 kmh 30.05 in1017.6 mb 0.00 in0.0 mm 0.00 in/hr0.0 mm/hr 0.03 in0.8 mm
03:00 AM 36.3°F2.4°C 31.9°F-0.1°C 84% 2.0 mph N3.2 kmh N 7.0 mph11.3 kmh 30.05 in1017.6 mb 0.00 in0.0 mm 0.00 in/hr0.0 mm/hr 0.03 in0.8 mm
02:45 AM 36.1°F2.3°C 32.0°F0.0°C 85% Calm Calm 5.0 mph8.0 kmh 30.04 in1017.3 mb 0.00 in0.0 mm 0.00 in/hr0.0 mm/hr 0.03 in0.8 mm
02:30 AM 36.0°F2.2°C 32.5°F0.3°C 87% Calm Calm 4.0 mph6.4 kmh 30.05 in1017.6 mb 0.00 in0.0 mm 0.00 in/hr0.0 mm/hr 0.03 in0.8 mm
02:15 AM 36.0°F2.2°C 32.5°F0.3°C 87% Calm Calm -- 30.05 in1017.6 mb 0.01 in0.3 mm 0.00 in/hr0.0 mm/hr 0.03 in0.8 mm
02:00 AM 35.9°F2.2°C 31.8°F-0.1°C 85% Calm Calm 4.0 mph6.4 kmh 30.04 in1017.3 mb 0.01 in0.3 mm 0.00 in/hr0.0 mm/hr 0.03 in0.8 mm
01:45 AM 36.1°F2.3°C 31.7°F-0.2°C 84% 1.0 mph E1.6 kmh E 5.0 mph8.0 kmh 30.04 in1017.3 mb 0.01 in0.3 mm 0.00 in/hr0.0 mm/hr 0.03 in0.8 mm
01:30 AM 36.4°F2.4°C 32.0°F0.0°C 84% 1.0 mph ENE1.6 kmh ENE 6.0 mph9.7 kmh 30.03 in1016.9 mb 0.01 in0.3 mm 0.00 in/hr0.0 mm/hr 0.03 in0.8 mm
01:15 AM 36.4°F2.4°C 31.4°F-0.3°C 82% 1.0 mph NE1.6 kmh NE 7.0 mph11.3 kmh 30.06 in1017.9 mb 0.01 in0.3 mm 0.00 in/hr0.0 mm/hr 0.02 in0.5 mm
01:00 AM 36.4°F2.4°C 31.4°F-0.3°C 82% 1.0 mph NE1.6 kmh NE 5.0 mph8.0 kmh 30.05 in1017.6 mb 0.02 in0.5 mm 0.00 in/hr0.0 mm/hr 0.02 in0.5 mm
12:45 AM 36.6°F2.6°C 31.6°F-0.2°C 82% 1.0 mph N1.6 kmh N 6.0 mph9.7 kmh 30.05 in1017.6 mb 0.02 in0.5 mm 0.00 in/hr0.0 mm/hr 0.02 in0.5 mm
12:30 AM 37.0°F2.8°C 31.7°F-0.2°C 81% Calm Calm -- 30.04 in1017.3 mb 0.02 in0.5 mm 0.04 in/hr1.0 mm/hr 0.02 in0.5 mm
12:15 AM 37.3°F2.9°C 31.4°F-0.3°C 79% Calm Calm 5.0 mph8.0 kmh 30.04 in1017.3 mb 0.01 in0.3 mm 0.04 in/hr1.0 mm/hr 0.01 in0.3 mm
12:00 AM 37.7°F3.2°C 29.1°F-1.6°C 71% 1.0 mph ENE1.6 kmh ENE 7.0 mph11.3 kmh 30.02 in1016.6 mb 0.00 in0.0 mm 0.00 in/hr0.0 mm/hr 0.00 in0.0 mm